sensor_id;sensor_type;location;lat;lon;timestamp;temperature;humidity
4279;DHT22;2153;47.744;10.580;2023-02-24T00:00:24;-0.10;99.90
4279;DHT22;2153;47.744;10.580;2023-02-24T00:02:59;0.00;99.90
4279;DHT22;2153;47.744;10.580;2023-02-24T00:05:33;-0.10;99.90
4279;DHT22;2153;47.744;10.580;2023-02-24T00:08:00;-0.10;99.90
4279;DHT22;2153;47.744;10.580;2023-02-24T00:10:27;-0.20;99.90
4279;DHT22;2153;47.744;10.580;2023-02-24T00:12:54;-0.30;99.90
4279;DHT22;2153;47.744;10.580;2023-02-24T00:15:21;-0.40;99.90
4279;DHT22;2153;47.744;10.580;2023-02-24T00:17:47;-0.40;99.90
4279;DHT22;2153;47.744;10.580;2023-02-24T00:20:14;-0.40;99.90
4279;DHT22;2153;47.744;10.580;2023-02-24T00:22:44;-0.30;99.90
4279;DHT22;2153;47.744;10.580;2023-02-24T00:25:11;-0.20;99.90
4279;DHT22;2153;47.744;10.580;2023-02-24T00:27:39;-0.20;99.90
4279;DHT22;2153;47.744;10.580;2023-02-24T00:30:07;-0.20;99.90
4279;DHT22;2153;47.744;10.580;2023-02-24T00:32:35;-0.20;99.90
4279;DHT22;2153;47.744;10.580;2023-02-24T00:35:03;-0.10;99.90
4279;DHT22;2153;47.744;10.580;2023-02-24T00:37:30;-0.10;99.90
4279;DHT22;2153;47.744;10.580;2023-02-24T00:39:58;-0.10;99.90
4279;DHT22;2153;47.744;10.580;2023-02-24T00:42:25;-0.20;99.90
4279;DHT22;2153;47.744;10.580;2023-02-24T00:44:52;-0.20;99.90
4279;DHT22;2153;47.744;10.580;2023-02-24T00:47:19;-0.20;99.90
4279;DHT22;2153;47.744;10.580;2023-02-24T00:49:47;-0.20;99.90
4279;DHT22;2153;47.744;10.580;2023-02-24T00:52:16;-0.10;99.90
4279;DHT22;2153;47.744;10.580;2023-02-24T00:54:44;-0.20;99.90
4279;DHT22;2153;47.744;10.580;2023-02-24T00:57:12;-0.20;99.90
4279;DHT22;2153;47.744;10.580;2023-02-24T00:59:40;-0.30;99.90
4279;DHT22;2153;47.744;10.580;2023-02-24T01:02:12;-0.30;99.90
4279;DHT22;2153;47.744;10.580;2023-02-24T01:04:39;-0.30;99.90
4279;DHT22;2153;47.744;10.580;2023-02-24T01:07:06;-0.30;99.90
4279;DHT22;2153;47.744;10.580;2023-02-24T01:09:36;-0.40;99.90
4279;DHT22;2153;47.744;10.580;2023-02-24T01:12:05;-0.30;99.90
4279;DHT22;2153;47.744;10.580;2023-02-24T01:14:52;-0.30;99.90
4279;DHT22;2153;47.744;10.580;2023-02-24T01:17:20;-0.30;99.90
4279;DHT22;2153;47.744;10.580;2023-02-24T01:19:47;-0.30;99.90
4279;DHT22;2153;47.744;10.580;2023-02-24T01:22:16;-0.40;99.90
4279;DHT22;2153;47.744;10.580;2023-02-24T01:24:43;-0.50;99.90
4279;DHT22;2153;47.744;10.580;2023-02-24T01:27:11;-0.50;99.90
4279;DHT22;2153;47.744;10.580;2023-02-24T01:29:38;-0.50;99.90
4279;DHT22;2153;47.744;10.580;2023-02-24T01:32:07;-0.60;99.90
4279;DHT22;2153;47.744;10.580;2023-02-24T01:34:37;-0.70;99.90
4279;DHT22;2153;47.744;10.580;2023-02-24T01:37:06;-0.80;99.90
4279;DHT22;2153;47.744;10.580;2023-02-24T01:39:33;-0.80;99.90
4279;DHT22;2153;47.744;10.580;2023-02-24T01:42:00;-0.80;99.90
4279;DHT22;2153;47.744;10.580;2023-02-24T01:47:41;-0.80;99.90
4279;DHT22;2153;47.744;10.580;2023-02-24T01:50:08;-0.80;99.90
4279;DHT22;2153;47.744;10.580;2023-02-24T01:52:39;-0.70;99.90
4279;DHT22;2153;47.744;10.580;2023-02-24T01:55:11;-0.70;99.90
4279;DHT22;2153;47.744;10.580;2023-02-24T01:57:40;-0.70;99.90
4279;DHT22;2153;47.744;10.580;2023-02-24T02:00:10;-0.70;99.90
4279;DHT22;2153;47.744;10.580;2023-02-24T02:02:58;-0.70;99.90
4279;DHT22;2153;47.744;10.580;2023-02-24T02:05:26;-0.70;99.90
4279;DHT22;2153;47.744;10.580;2023-02-24T02:07:53;-0.70;99.90
4279;DHT22;2153;47.744;10.580;2023-02-24T02:10:21;-0.70;99.90
4279;DHT22;2153;47.744;10.580;2023-02-24T02:12:49;-0.70;99.90
4279;DHT22;2153;47.744;10.580;2023-02-24T02:15:17;-0.70;99.90
4279;DHT22;2153;47.744;10.580;2023-02-24T02:17:53;-0.60;99.90
4279;DHT22;2153;47.744;10.580;2023-02-24T02:20:57;-0.60;99.90
4279;DHT22;2153;47.744;10.580;2023-02-24T02:23:47;-0.50;99.90
4279;DHT22;2153;47.744;10.580;2023-02-24T02:26:57;-0.50;99.90
4279;DHT22;2153;47.744;10.580;2023-02-24T02:35:43;-0.50;99.90
4279;DHT22;2153;47.744;10.580;2023-02-24T02:38:17;-0.80;99.90
4279;DHT22;2153;47.744;10.580;2023-02-24T02:40:55;-0.90;99.90
4279;DHT22;2153;47.744;10.580;2023-02-24T02:43:31;-0.90;99.90
4279;DHT22;2153;47.744;10.580;2023-02-24T02:46:05;-1.00;99.90
4279;DHT22;2153;47.744;10.580;2023-02-24T02:48:37;-1.00;99.90
4279;DHT22;2153;47.744;10.580;2023-02-24T02:51:09;-0.90;99.90
4279;DHT22;2153;47.744;10.580;2023-02-24T02:53:41;-0.90;99.90
4279;DHT22;2153;47.744;10.580;2023-02-24T02:56:14;-0.90;99.90
4279;DHT22;2153;47.744;10.580;2023-02-24T02:58:46;-0.90;99.90
4279;DHT22;2153;47.744;10.580;2023-02-24T03:01:15;-0.80;99.90
4279;DHT22;2153;47.744;10.580;2023-02-24T03:03:45;-0.80;99.90
4279;DHT22;2153;47.744;10.580;2023-02-24T03:06:18;-0.80;99.90
4279;DHT22;2153;47.744;10.580;2023-02-24T03:08:51;-0.70;99.90
4279;DHT22;2153;47.744;10.580;2023-02-24T03:11:19;-0.80;99.90
4279;DHT22;2153;47.744;10.580;2023-02-24T03:13:49;-0.80;99.90
4279;DHT22;2153;47.744;10.580;2023-02-24T03:16:17;-0.80;99.90
4279;DHT22;2153;47.744;10.580;2023-02-24T03:18:47;-0.70;99.90
4279;DHT22;2153;47.744;10.580;2023-02-24T03:21:24;-0.70;99.90
4279;DHT22;2153;47.744;10.580;2023-02-24T03:23:53;-0.70;99.90
4279;DHT22;2153;47.744;10.580;2023-02-24T03:26:23;-0.80;99.90
4279;DHT22;2153;47.744;10.580;2023-02-24T03:28:57;-0.90;99.90
4279;DHT22;2153;47.744;10.580;2023-02-24T03:31:31;-0.90;99.90
4279;DHT22;2153;47.744;10.580;2023-02-24T03:34:01;-0.90;99.90
4279;DHT22;2153;47.744;10.580;2023-02-24T03:36:32;-0.80;99.90
4279;DHT22;2153;47.744;10.580;2023-02-24T03:38:59;-0.80;99.90
4279;DHT22;2153;47.744;10.580;2023-02-24T03:41:34;-0.70;99.90
4279;DHT22;2153;47.744;10.580;2023-02-24T03:44:03;-0.70;99.90
4279;DHT22;2153;47.744;10.580;2023-02-24T03:46:31;-0.80;99.90
4279;DHT22;2153;47.744;10.580;2023-02-24T03:49:06;-0.80;99.90
4279;DHT22;2153;47.744;10.580;2023-02-24T03:51:39;-0.90;99.90
4279;DHT22;2153;47.744;10.580;2023-02-24T03:54:18;-0.90;99.90
4279;DHT22;2153;47.744;10.580;2023-02-24T03:57:03;-0.90;99.90
4279;DHT22;2153;47.744;10.580;2023-02-24T03:59:41;-0.90;99.90
4279;DHT22;2153;47.744;10.580;2023-02-24T04:02:15;-0.80;99.90
4279;DHT22;2153;47.744;10.580;2023-02-24T04:04:48;-0.70;99.90
4279;DHT22;2153;47.744;10.580;2023-02-24T04:07:25;-0.70;99.90
4279;DHT22;2153;47.744;10.580;2023-02-24T04:09:59;-0.70;99.90
4279;DHT22;2153;47.744;10.580;2023-02-24T04:12:31;-0.70;99.90
4279;DHT22;2153;47.744;10.580;2023-02-24T04:15:04;-0.70;99.90
4279;DHT22;2153;47.744;10.580;2023-02-24T04:17:38;-0.70;99.90
4279;DHT22;2153;47.744;10.580;2023-02-24T04:20:11;-0.70;99.90
4279;DHT22;2153;47.744;10.580;2023-02-24T04:22:44;-0.60;99.90
4279;DHT22;2153;47.744;10.580;2023-02-24T04:25:15;-0.50;99.90
4279;DHT22;2153;47.744;10.580;2023-02-24T04:27:45;-0.50;99.90
4279;DHT22;2153;47.744;10.580;2023-02-24T04:30:13;-0.40;99.90
4279;DHT22;2153;47.744;10.580;2023-02-24T04:32:41;-0.40;99.90
4279;DHT22;2153;47.744;10.580;2023-02-24T04:35:12;-0.40;99.90
4279;DHT22;2153;47.744;10.580;2023-02-24T04:37:41;-0.40;99.90
4279;DHT22;2153;47.744;10.580;2023-02-24T04:40:10;-0.50;99.90
4279;DHT22;2153;47.744;10.580;2023-02-24T04:42:37;-0.50;99.90
4279;DHT22;2153;47.744;10.580;2023-02-24T04:45:11;-0.50;99.90
4279;DHT22;2153;47.744;10.580;2023-02-24T04:47:38;-0.50;99.90
4279;DHT22;2153;47.744;10.580;2023-02-24T04:50:11;-0.40;99.90
4279;DHT22;2153;47.744;10.580;2023-02-24T04:52:49;-0.30;99.90
4279;DHT22;2153;47.744;10.580;2023-02-24T04:55:16;-0.30;99.90
4279;DHT22;2153;47.744;10.580;2023-02-24T04:57:44;-0.30;99.90
4279;DHT22;2153;47.744;10.580;2023-02-24T05:00:13;-0.40;99.90
4279;DHT22;2153;47.744;10.580;2023-02-24T05:02:45;-0.40;99.90
4279;DHT22;2153;47.744;10.580;2023-02-24T05:05:13;-0.40;99.90
4279;DHT22;2153;47.744;10.580;2023-02-24T05:07:40;-0.40;99.90
4279;DHT22;2153;47.744;10.580;2023-02-24T05:10:13;-0.40;99.90
4279;DHT22;2153;47.744;10.580;2023-02-24T05:12:40;-0.30;99.90
4279;DHT22;2153;47.744;10.580;2023-02-24T05:15:08;-0.30;99.90
4279;DHT22;2153;47.744;10.580;2023-02-24T05:17:35;-0.20;99.90
4279;DHT22;2153;47.744;10.580;2023-02-24T05:20:02;-0.10;99.90
4279;DHT22;2153;47.744;10.580;2023-02-24T05:22:48;-0.10;99.90
4279;DHT22;2153;47.744;10.580;2023-02-24T05:25:17;0.00;99.90
4279;DHT22;2153;47.744;10.580;2023-02-24T05:27:45;0.00;99.90
4279;DHT22;2153;47.744;10.580;2023-02-24T05:30:13;0.00;99.90
4279;DHT22;2153;47.744;10.580;2023-02-24T05:32:39;0.10;99.90
4279;DHT22;2153;47.744;10.580;2023-02-24T05:35:07;0.10;99.90
4279;DHT22;2153;47.744;10.580;2023-02-24T05:37:37;0.20;99.90
4279;DHT22;2153;47.744;10.580;2023-02-24T05:40:07;0.30;99.90
4279;DHT22;2153;47.744;10.580;2023-02-24T05:42:39;0.30;99.90
4279;DHT22;2153;47.744;10.580;2023-02-24T05:45:10;0.20;99.90
4279;DHT22;2153;47.744;10.580;2023-02-24T05:47:37;0.30;99.90
4279;DHT22;2153;47.744;10.580;2023-02-24T05:50:05;0.30;99.90
4279;DHT22;2153;47.744;10.580;2023-02-24T05:52:33;0.30;99.90
4279;DHT22;2153;47.744;10.580;2023-02-24T05:55:02;0.30;99.90
4279;DHT22;2153;47.744;10.580;2023-02-24T05:57:32;0.20;99.90
4279;DHT22;2153;47.744;10.580;2023-02-24T06:00:02;0.20;99.90
4279;DHT22;2153;47.744;10.580;2023-02-24T06:02:39;0.30;99.90
4279;DHT22;2153;47.744;10.580;2023-02-24T06:05:15;0.30;99.90
4279;DHT22;2153;47.744;10.580;2023-02-24T06:07:53;0.30;99.90
4279;DHT22;2153;47.744;10.580;2023-02-24T06:10:27;0.40;99.90
4279;DHT22;2153;47.744;10.580;2023-02-24T06:12:56;0.40;99.90
4279;DHT22;2153;47.744;10.580;2023-02-24T06:15:24;0.40;99.90
4279;DHT22;2153;47.744;10.580;2023-02-24T06:17:51;0.50;99.90
4279;DHT22;2153;47.744;10.580;2023-02-24T06:20:21;0.50;99.90
4279;DHT22;2153;47.744;10.580;2023-02-24T06:22:48;0.50;99.90
4279;DHT22;2153;47.744;10.580;2023-02-24T06:25:19;0.50;99.90
4279;DHT22;2153;47.744;10.580;2023-02-24T06:27:48;0.60;99.90
4279;DHT22;2153;47.744;10.580;2023-02-24T06:30:17;0.60;99.90
4279;DHT22;2153;47.744;10.580;2023-02-24T06:32:47;0.60;99.90
4279;DHT22;2153;47.744;10.580;2023-02-24T06:35:16;0.60;99.90
4279;DHT22;2153;47.744;10.580;2023-02-24T06:37:42;0.60;99.90
4279;DHT22;2153;47.744;10.580;2023-02-24T06:40:10;0.50;99.90
4279;DHT22;2153;47.744;10.580;2023-02-24T06:42:43;0.60;99.90
4279;DHT22;2153;47.744;10.580;2023-02-24T06:45:11;0.70;99.90
4279;DHT22;2153;47.744;10.580;2023-02-24T06:47:38;0.70;99.90
4279;DHT22;2153;47.744;10.580;2023-02-24T06:50:07;0.80;99.90
4279;DHT22;2153;47.744;10.580;2023-02-24T06:52:34;0.90;99.90
4279;DHT22;2153;47.744;10.580;2023-02-24T06:55:01;1.10;99.90
4279;DHT22;2153;47.744;10.580;2023-02-24T06:57:29;1.30;99.90
4279;DHT22;2153;47.744;10.580;2023-02-24T06:59:58;1.50;99.90
4279;DHT22;2153;47.744;10.580;2023-02-24T07:02:25;1.70;99.90
4279;DHT22;2153;47.744;10.580;2023-02-24T07:05:05;1.90;99.90
4279;DHT22;2153;47.744;10.580;2023-02-24T07:07:38;2.10;99.90
4279;DHT22;2153;47.744;10.580;2023-02-24T07:10:10;2.30;99.90
4279;DHT22;2153;47.744;10.580;2023-02-24T07:12:38;2.60;99.90
4279;DHT22;2153;47.744;10.580;2023-02-24T07:15:06;3.00;99.90
4279;DHT22;2153;47.744;10.580;2023-02-24T07:17:33;3.40;99.90
4279;DHT22;2153;47.744;10.580;2023-02-24T07:20:01;3.30;99.90
4279;DHT22;2153;47.744;10.580;2023-02-24T07:22:37;3.20;99.90
4279;DHT22;2153;47.744;10.580;2023-02-24T07:25:04;3.20;99.90
4279;DHT22;2153;47.744;10.580;2023-02-24T07:27:31;3.30;99.90
4279;DHT22;2153;47.744;10.580;2023-02-24T07:29:58;3.60;99.90
4279;DHT22;2153;47.744;10.580;2023-02-24T07:32:30;3.70;99.90
4279;DHT22;2153;47.744;10.580;2023-02-24T07:34:57;4.00;99.90
4279;DHT22;2153;47.744;10.580;2023-02-24T07:37:24;4.70;99.90
4279;DHT22;2153;47.744;10.580;2023-02-24T07:39:57;5.30;99.90
4279;DHT22;2153;47.744;10.580;2023-02-24T07:42:23;5.00;99.90
4279;DHT22;2153;47.744;10.580;2023-02-24T07:44:53;4.80;99.90
4279;DHT22;2153;47.744;10.580;2023-02-24T07:47:20;4.80;99.90
4279;DHT22;2153;47.744;10.580;2023-02-24T07:49:47;4.60;99.90
4279;DHT22;2153;47.744;10.580;2023-02-24T07:52:15;4.70;99.90
4279;DHT22;2153;47.744;10.580;2023-02-24T07:54:42;4.70;99.90
4279;DHT22;2153;47.744;10.580;2023-02-24T07:57:12;4.90;99.90
4279;DHT22;2153;47.744;10.580;2023-02-24T07:59:45;5.60;99.90
4279;DHT22;2153;47.744;10.580;2023-02-24T08:02:12;6.30;99.90
4279;DHT22;2153;47.744;10.580;2023-02-24T08:04:38;6.90;99.90
4279;DHT22;2153;47.744;10.580;2023-02-24T08:07:08;7.50;99.90
4279;DHT22;2153;47.744;10.580;2023-02-24T08:09:39;8.10;99.90
4279;DHT22;2153;47.744;10.580;2023-02-24T08:12:25;8.70;99.90
4279;DHT22;2153;47.744;10.580;2023-02-24T08:14:52;9.50;99.90
4279;DHT22;2153;47.744;10.580;2023-02-24T08:17:25;9.80;99.90
4279;DHT22;2153;47.744;10.580;2023-02-24T08:19:53;10.00;99.90
4279;DHT22;2153;47.744;10.580;2023-02-24T08:22:42;9.80;99.90
4279;DHT22;2153;47.744;10.580;2023-02-24T08:25:12;9.50;99.90
4279;DHT22;2153;47.744;10.580;2023-02-24T08:27:45;9.30;99.90
4279;DHT22;2153;47.744;10.580;2023-02-24T08:30:21;8.80;99.90
4279;DHT22;2153;47.744;10.580;2023-02-24T08:32:49;8.70;99.90
4279;DHT22;2153;47.744;10.580;2023-02-24T08:35:23;8.70;99.90
4279;DHT22;2153;47.744;10.580;2023-02-24T08:37:52;8.60;99.90
4279;DHT22;2153;47.744;10.580;2023-02-24T08:40:21;8.50;99.90
4279;DHT22;2153;47.744;10.580;2023-02-24T08:43:05;8.20;99.90
4279;DHT22;2153;47.744;10.580;2023-02-24T08:45:43;7.90;99.90
4279;DHT22;2153;47.744;10.580;2023-02-24T08:48:10;7.90;99.90
4279;DHT22;2153;47.744;10.580;2023-02-24T08:50:53;8.30;99.90
4279;DHT22;2153;47.744;10.580;2023-02-24T08:53:21;9.70;99.90
4279;DHT22;2153;47.744;10.580;2023-02-24T08:55:48;10.70;99.90
4279;DHT22;2153;47.744;10.580;2023-02-24T08:58:19;10.90;99.90
4279;DHT22;2153;47.744;10.580;2023-02-24T09:00:51;11.10;99.90
4279;DHT22;2153;47.744;10.580;2023-02-24T09:03:21;12.10;99.90
4279;DHT22;2153;47.744;10.580;2023-02-24T09:05:59;13.50;99.90
4279;DHT22;2153;47.744;10.580;2023-02-24T09:08:26;13.80;99.90
4279;DHT22;2153;47.744;10.580;2023-02-24T09:10:58;14.40;99.90
4279;DHT22;2153;47.744;10.580;2023-02-24T09:13:26;14.00;99.90
4279;DHT22;2153;47.744;10.580;2023-02-24T09:15:58;13.80;99.90
4279;DHT22;2153;47.744;10.580;2023-02-24T09:18:25;13.60;99.90
4279;DHT22;2153;47.744;10.580;2023-02-24T09:20:55;13.60;99.90
4279;DHT22;2153;47.744;10.580;2023-02-24T09:23:21;14.40;99.90
4279;DHT22;2153;47.744;10.580;2023-02-24T09:25:55;15.30;99.90
4279;DHT22;2153;47.744;10.580;2023-02-24T09:28:22;16.20;99.90
4279;DHT22;2153;47.744;10.580;2023-02-24T09:30:52;16.30;99.90
4279;DHT22;2153;47.744;10.580;2023-02-24T09:33:21;17.20;99.90
4279;DHT22;2153;47.744;10.580;2023-02-24T09:35:51;17.40;82.30
4279;DHT22;2153;47.744;10.580;2023-02-24T09:38:20;17.10;69.00
4279;DHT22;2153;47.744;10.580;2023-02-24T09:41:18;15.90;81.20
4279;DHT22;2153;47.744;10.580;2023-02-24T09:43:54;15.40;99.90
4279;DHT22;2153;47.744;10.580;2023-02-24T09:46:25;15.10;99.90
4279;DHT22;2153;47.744;10.580;2023-02-24T09:48:54;14.60;99.90
4279;DHT22;2153;47.744;10.580;2023-02-24T09:51:30;14.40;99.90
4279;DHT22;2153;47.744;10.580;2023-02-24T09:54:11;13.90;99.90
4279;DHT22;2153;47.744;10.580;2023-02-24T09:56:44;13.70;99.90
4279;DHT22;2153;47.744;10.580;2023-02-24T09:59:18;13.50;99.90
4279;DHT22;2153;47.744;10.580;2023-02-24T10:01:57;13.60;99.90
4279;DHT22;2153;47.744;10.580;2023-02-24T10:04:38;14.40;99.90
4279;DHT22;2153;47.744;10.580;2023-02-24T10:07:15;14.40;99.90
4279;DHT22;2153;47.744;10.580;2023-02-24T10:09:47;14.20;99.90
4279;DHT22;2153;47.744;10.580;2023-02-24T10:12:18;14.30;99.90
4279;DHT22;2153;47.744;10.580;2023-02-24T10:14:50;14.40;99.90
4279;DHT22;2153;47.744;10.580;2023-02-24T10:17:41;15.50;99.90
4279;DHT22;2153;47.744;10.580;2023-02-24T10:20:15;16.70;99.90
4279;DHT22;2153;47.744;10.580;2023-02-24T10:22:58;17.50;99.30
4279;DHT22;2153;47.744;10.580;2023-02-24T10:25:39;17.70;97.40
4279;DHT22;2153;47.744;10.580;2023-02-24T10:28:18;18.20;79.30
4279;DHT22;2153;47.744;10.580;2023-02-24T10:30:54;17.60;86.00
4279;DHT22;2153;47.744;10.580;2023-02-24T10:33:33;17.00;94.40
4279;DHT22;2153;47.744;10.580;2023-02-24T10:36:08;16.20;99.60
4279;DHT22;2153;47.744;10.580;2023-02-24T10:38:36;15.50;99.90
4279;DHT22;2153;47.744;10.580;2023-02-24T10:41:08;15.40;99.90
4279;DHT22;2153;47.744;10.580;2023-02-24T10:43:34;15.50;99.90
4279;DHT22;2153;47.744;10.580;2023-02-24T10:46:22;15.00;99.90
4279;DHT22;2153;47.744;10.580;2023-02-24T10:48:55;14.60;99.90
4279;DHT22;2153;47.744;10.580;2023-02-24T10:51:29;14.50;99.90
4279;DHT22;2153;47.744;10.580;2023-02-24T10:54:11;14.30;99.90
4279;DHT22;2153;47.744;10.580;2023-02-24T10:57:05;14.10;99.90
4279;DHT22;2153;47.744;10.580;2023-02-24T10:59:48;13.90;99.90
4279;DHT22;2153;47.744;10.580;2023-02-24T11:02:48;13.80;99.90
4279;DHT22;2153;47.744;10.580;2023-02-24T11:05:41;13.40;99.90
4279;DHT22;2153;47.744;10.580;2023-02-24T11:08:32;13.20;99.90
4279;DHT22;2153;47.744;10.580;2023-02-24T11:11:09;13.20;99.90
4279;DHT22;2153;47.744;10.580;2023-02-24T11:13:48;13.40;99.90
4279;DHT22;2153;47.744;10.580;2023-02-24T11:16:41;13.60;99.90
4279;DHT22;2153;47.744;10.580;2023-02-24T11:19:28;13.70;99.90
4279;DHT22;2153;47.744;10.580;2023-02-24T11:21:57;13.70;99.90
4279;DHT22;2153;47.744;10.580;2023-02-24T11:24:24;13.70;99.90
4279;DHT22;2153;47.744;10.580;2023-02-24T11:26:52;13.60;99.90
4279;DHT22;2153;47.744;10.580;2023-02-24T11:29:32;13.20;99.90
4279;DHT22;2153;47.744;10.580;2023-02-24T11:32:22;13.10;99.90
4279;DHT22;2153;47.744;10.580;2023-02-24T11:34:57;13.00;99.90
4279;DHT22;2153;47.744;10.580;2023-02-24T11:37:36;12.70;99.90
4279;DHT22;2153;47.744;10.580;2023-02-24T11:40:10;12.60;99.90
4279;DHT22;2153;47.744;10.580;2023-02-24T11:42:42;12.70;99.90
4279;DHT22;2153;47.744;10.580;2023-02-24T11:45:27;12.80;99.90
4279;DHT22;2153;47.744;10.580;2023-02-24T11:47:59;12.90;99.90
4279;DHT22;2153;47.744;10.580;2023-02-24T11:50:38;12.90;99.90
4279;DHT22;2153;47.744;10.580;2023-02-24T11:53:17;12.80;99.90
4279;DHT22;2153;47.744;10.580;2023-02-24T11:55:52;12.90;99.90
4279;DHT22;2153;47.744;10.580;2023-02-24T11:58:27;12.70;99.90
4279;DHT22;2153;47.744;10.580;2023-02-24T12:00:58;12.70;99.90
4279;DHT22;2153;47.744;10.580;2023-02-24T12:03:31;12.60;99.90
4279;DHT22;2153;47.744;10.580;2023-02-24T12:06:08;12.50;99.90
4279;DHT22;2153;47.744;10.580;2023-02-24T12:08:40;12.50;99.90
4279;DHT22;2153;47.744;10.580;2023-02-24T12:11:13;12.30;99.90
4279;DHT22;2153;47.744;10.580;2023-02-24T12:13:48;12.20;99.90
4279;DHT22;2153;47.744;10.580;2023-02-24T12:16:18;12.00;99.90
4279;DHT22;2153;47.744;10.580;2023-02-24T12:18:51;11.90;99.90
4279;DHT22;2153;47.744;10.580;2023-02-24T12:21:24;11.90;99.90
4279;DHT22;2153;47.744;10.580;2023-02-24T12:23:57;11.80;99.90
4279;DHT22;2153;47.744;10.580;2023-02-24T12:26:25;11.70;99.90
4279;DHT22;2153;47.744;10.580;2023-02-24T12:29:08;11.70;99.90
4279;DHT22;2153;47.744;10.580;2023-02-24T12:31:50;11.50;99.90
4279;DHT22;2153;47.744;10.580;2023-02-24T12:34:28;11.50;99.90
4279;DHT22;2153;47.744;10.580;2023-02-24T12:37:23;11.50;99.90
4279;DHT22;2153;47.744;10.580;2023-02-24T12:40:02;11.40;99.90
4279;DHT22;2153;47.744;10.580;2023-02-24T12:42:36;11.40;99.90
4279;DHT22;2153;47.744;10.580;2023-02-24T12:45:11;11.30;99.90
4279;DHT22;2153;47.744;10.580;2023-02-24T12:47:59;11.30;99.90
4279;DHT22;2153;47.744;10.580;2023-02-24T12:50:34;11.30;99.90
4279;DHT22;2153;47.744;10.580;2023-02-24T12:53:10;11.40;99.90
4279;DHT22;2153;47.744;10.580;2023-02-24T12:55:50;11.50;99.90
4279;DHT22;2153;47.744;10.580;2023-02-24T12:58:24;11.50;99.90
4279;DHT22;2153;47.744;10.580;2023-02-24T13:01:00;11.60;99.90
4279;DHT22;2153;47.744;10.580;2023-02-24T13:03:38;11.50;99.90
4279;DHT22;2153;47.744;10.580;2023-02-24T13:06:13;11.50;99.90
4279;DHT22;2153;47.744;10.580;2023-02-24T13:08:50;11.40;99.90
4279;DHT22;2153;47.744;10.580;2023-02-24T13:11:33;11.30;99.90
4279;DHT22;2153;47.744;10.580;2023-02-24T13:14:08;11.40;99.90
4279;DHT22;2153;47.744;10.580;2023-02-24T13:16:37;11.20;99.90
4279;DHT22;2153;47.744;10.580;2023-02-24T13:19:16;11.10;99.90
4279;DHT22;2153;47.744;10.580;2023-02-24T13:21:54;11.00;99.90
4279;DHT22;2153;47.744;10.580;2023-02-24T13:24:22;11.10;99.90
4279;DHT22;2153;47.744;10.580;2023-02-24T13:26:51;11.10;99.90
4279;DHT22;2153;47.744;10.580;2023-02-24T13:29:18;11.20;99.90
4279;DHT22;2153;47.744;10.580;2023-02-24T13:31:46;11.20;99.90
4279;DHT22;2153;47.744;10.580;2023-02-24T13:34:29;11.10;99.90
4279;DHT22;2153;47.744;10.580;2023-02-24T13:36:57;11.10;99.90
4279;DHT22;2153;47.744;10.580;2023-02-24T13:39:30;11.10;99.90
4279;DHT22;2153;47.744;10.580;2023-02-24T13:42:04;11.10;99.90
4279;DHT22;2153;47.744;10.580;2023-02-24T13:44:31;11.10;99.90
4279;DHT22;2153;47.744;10.580;2023-02-24T13:47:44;11.00;99.90
4279;DHT22;2153;47.744;10.580;2023-02-24T13:50:20;11.10;99.90
4279;DHT22;2153;47.744;10.580;2023-02-24T13:53:07;11.20;99.90
4279;DHT22;2153;47.744;10.580;2023-02-24T13:55:49;11.30;99.90
4279;DHT22;2153;47.744;10.580;2023-02-24T13:58:41;11.50;99.90
4279;DHT22;2153;47.744;10.580;2023-02-24T14:01:12;11.60;99.90
4279;DHT22;2153;47.744;10.580;2023-02-24T14:03:42;11.50;99.90
4279;DHT22;2153;47.744;10.580;2023-02-24T14:06:15;11.70;99.90
4279;DHT22;2153;47.744;10.580;2023-02-24T14:08:46;12.00;99.90
4279;DHT22;2153;47.744;10.580;2023-02-24T14:11:16;12.20;99.90
4279;DHT22;2153;47.744;10.580;2023-02-24T14:13:48;12.20;99.90
4279;DHT22;2153;47.744;10.580;2023-02-24T14:16:18;12.10;99.90
4279;DHT22;2153;47.744;10.580;2023-02-24T14:18:51;12.00;99.90
4279;DHT22;2153;47.744;10.580;2023-02-24T14:21:21;11.90;99.90
4279;DHT22;2153;47.744;10.580;2023-02-24T14:23:54;11.80;99.90
4279;DHT22;2153;47.744;10.580;2023-02-24T14:26:21;11.60;99.90
4279;DHT22;2153;47.744;10.580;2023-02-24T14:28:54;11.60;99.90
4279;DHT22;2153;47.744;10.580;2023-02-24T14:31:23;11.40;99.90
4279;DHT22;2153;47.744;10.580;2023-02-24T14:33:55;11.40;99.90
4279;DHT22;2153;47.744;10.580;2023-02-24T14:36:25;11.30;99.90
4279;DHT22;2153;47.744;10.580;2023-02-24T14:39:00;11.30;99.90
4279;DHT22;2153;47.744;10.580;2023-02-24T14:41:27;11.40;99.90
4279;DHT22;2153;47.744;10.580;2023-02-24T14:43:55;11.50;99.90
4279;DHT22;2153;47.744;10.580;2023-02-24T14:46:22;11.60;99.90
4279;DHT22;2153;47.744;10.580;2023-02-24T14:48:52;11.80;99.90
4279;DHT22;2153;47.744;10.580;2023-02-24T14:51:24;11.90;99.90
4279;DHT22;2153;47.744;10.580;2023-02-24T14:53:54;12.00;99.90
4279;DHT22;2153;47.744;10.580;2023-02-24T14:56:27;11.90;99.90
4279;DHT22;2153;47.744;10.580;2023-02-24T14:58:59;11.90;99.90
4279;DHT22;2153;47.744;10.580;2023-02-24T15:01:30;11.80;99.90
4279;DHT22;2153;47.744;10.580;2023-02-24T15:03:59;11.80;99.90
4279;DHT22;2153;47.744;10.580;2023-02-24T15:06:28;11.70;99.90
4279;DHT22;2153;47.744;10.580;2023-02-24T15:08:59;11.60;99.90
4279;DHT22;2153;47.744;10.580;2023-02-24T15:11:28;11.70;99.90
4279;DHT22;2153;47.744;10.580;2023-02-24T15:13:59;11.70;99.90
4279;DHT22;2153;47.744;10.580;2023-02-24T15:16:31;11.60;99.90
4279;DHT22;2153;47.744;10.580;2023-02-24T15:18:59;11.50;99.90
4279;DHT22;2153;47.744;10.580;2023-02-24T15:21:28;11.50;99.90
4279;DHT22;2153;47.744;10.580;2023-02-24T15:23:59;11.40;99.90
4279;DHT22;2153;47.744;10.580;2023-02-24T15:26:29;11.20;99.90
4279;DHT22;2153;47.744;10.580;2023-02-24T15:28:59;11.10;99.90
4279;DHT22;2153;47.744;10.580;2023-02-24T15:31:26;11.00;99.90
4279;DHT22;2153;47.744;10.580;2023-02-24T15:33:55;11.00;99.90
4279;DHT22;2153;47.744;10.580;2023-02-24T15:36:26;10.90;99.90
4279;DHT22;2153;47.744;10.580;2023-02-24T15:38:56;10.80;99.90
4279;DHT22;2153;47.744;10.580;2023-02-24T15:41:23;10.70;99.90
4279;DHT22;2153;47.744;10.580;2023-02-24T15:43:51;10.60;99.90
4279;DHT22;2153;47.744;10.580;2023-02-24T15:46:24;10.60;99.90
4279;DHT22;2153;47.744;10.580;2023-02-24T15:48:54;10.50;99.90
4279;DHT22;2153;47.744;10.580;2023-02-24T15:51:30;10.60;99.90
4279;DHT22;2153;47.744;10.580;2023-02-24T15:53:58;10.50;99.90
4279;DHT22;2153;47.744;10.580;2023-02-24T15:56:26;10.40;99.90
4279;DHT22;2153;47.744;10.580;2023-02-24T15:58:52;10.30;99.90
4279;DHT22;2153;47.744;10.580;2023-02-24T16:01:19;10.30;99.90
4279;DHT22;2153;47.744;10.580;2023-02-24T16:03:47;10.20;99.90
4279;DHT22;2153;47.744;10.580;2023-02-24T16:06:18;10.10;99.90
4279;DHT22;2153;47.744;10.580;2023-02-24T16:08:46;10.10;99.90
4279;DHT22;2153;47.744;10.580;2023-02-24T16:11:15;10.00;99.90
4279;DHT22;2153;47.744;10.580;2023-02-24T16:13:45;9.80;99.90
4279;DHT22;2153;47.744;10.580;2023-02-24T16:16:13;9.80;99.90
4279;DHT22;2153;47.744;10.580;2023-02-24T16:18:40;9.70;99.90
4279;DHT22;2153;47.744;10.580;2023-02-24T16:21:08;9.70;99.90
4279;DHT22;2153;47.744;10.580;2023-02-24T16:23:35;9.70;99.90
4279;DHT22;2153;47.744;10.580;2023-02-24T16:26:05;9.60;99.90
4279;DHT22;2153;47.744;10.580;2023-02-24T16:28:33;9.50;99.90
4279;DHT22;2153;47.744;10.580;2023-02-24T16:31:00;9.50;99.90